Андреевка

Карта отелей и гостиниц, располагающихся рядом с аэропортом Андреевка :

Андреевка Липецкая область 52° 10' 56.5788" N, 40° 22' 37.74" E
Андреевка Липецкая область 52° 10' 56.5788" N, 40° 22' 37.74" E
Код аэродрома ИКАО
ZEH5
Код аэродрома RU
ЗЕХ5
Координаты
N52.18238° E040.37715°
Превышение над уровнем моря
147
Основная полоса
09/27
Курс магнитный
085,8/265,8
Длина основной ВПП
400
Ширина основной ВПП
18
Покрытие основной ВПП
Твёрдое (асфальт)
Освещение ВПП
Нет
Тип: 
Аэродром
Класс аэродрома: 
Принадлежность: 
ГА
Статус: 
Недействующий
Сайт: 
E-mail аэродрома: 
Страна: 
Россия
Регион: 
Липецкая область
Город: 
Дополнительная информация: 
Бывшая площадка АХР.

Найти трансфер

С помощью этой формы Вы можете найти трансфер из аэропорта Андреевка в город, аэропорт или вокзал:

Карта места

Javascript is required to view this map.

Погода в аэропортах:

Авиационная погода в Екатеринбурге

Регион: 
Погода METAR: 
USSS 171830Z 10002MPS 9000 -SHRA SCT008 OVC022CB 05/05 Q1007 R26L/290050 R26R/290032 TEMPO 3100 -SHRA BKN005 SCT016CB RMK QFE734/0979
Время наблюдения
2021-09-17T18:30:00Z
Температура C
5.0
Точка росы
5.0
Направление ветра
100
Скорость ветра (узлы)
4
Метео видимость
5.59
Явления погоды
-SHRA
Условия полета
MVFR
Аэропорт подробнее: 

Авиационная погода в Перми

Регион: 
Погода METAR: 
USPP 171830Z 30002MPS 280V340 9999 -RA BKN024 05/05 Q1009 R21/290250 TEMPO 2200 -RA BKN011 RMK QFE746
Время наблюдения
2021-09-17T18:30:00Z
Температура C
5.0
Точка росы
5.0
Направление ветра
300
Скорость ветра (узлы)
4
Метео видимость
6.21
Явления погоды
-RA
Условия полета
MVFR
Аэропорт подробнее: 

Авиационная погода в Храброво

Регион: 
Погода METAR: 
UMKK 171830Z 08006MPS 5000 -DZ BR OVC004 11/11 Q1011 R06/19//95 NOSIG RMK QBB120 OBST OBSC QFE757/1009
Время наблюдения
2021-09-17T18:30:00Z
Температура C
11.0
Точка росы
11.0
Направление ветра
80
Скорость ветра (узлы)
12
Метео видимость
3.11
Явления погоды
-DZ BR
Условия полета
LIFR
Аэропорт подробнее: 

Авиационная погода в Челябинске

Регион: 
Погода METAR: 
USCC 171830Z 28003MPS 9999 -SHRA BKN026CB 07/07 Q1007 R27/290050 TEMPO 2000 SHRA RMK QFE735
Время наблюдения
2021-09-17T18:30:00Z
Температура C
7.0
Точка росы
7.0
Направление ветра
280
Скорость ветра (узлы)
6
Метео видимость
6.21
Явления погоды
-SHRA
Условия полета
MVFR
Аэропорт подробнее: